Time;durP1;ratioP1;P1;durP2;ratioP2;P2;SDS_P1;SDS_P2;PMS_P1;PMS_P2;Temp;Humidity;BMP_temperature;BMP_pressure;BME280_temperature;BME280_humidity;BME280_pressure;Samples;Min_cycle;Max_cycle;Signal;HPM_P1;HPM_P2
2021/01/14 00:02:04;;;;;;;;;;;;;;;1.09;89.35;99404.39;1595977;88;20246;-78
2021/01/14 00:04:30;;;;;;;;;;;;;;;1.10;89.37;99408.64;1596613;88;20319;-78
2021/01/14 00:06:57;;;;;;;;;;;;;;;1.10;89.37;99411.18;1597307;88;21334;-78
2021/01/14 00:09:23;;;;;;;;;;;;;;;1.11;89.39;99412.88;1596200;88;20307;-78
2021/01/14 00:11:49;;;;;;;;;;;;;;;1.11;89.38;99416.70;1598833;88;20306;-78
2021/01/14 00:14:15;;;;;;;;;;;;;;;1.11;89.41;99415.00;1595495;88;20997;-78
2021/01/14 00:16:41;;;;;;;;;;;;;;;1.12;89.37;99415.86;1576391;88;20326;-79
2021/01/14 00:19:07;;;;;;;;;;;;;;;1.10;89.36;99418.39;1598274;88;21229;-79
2021/01/14 00:21:43;;;;;;;;;;;;;;;1.11;89.38;99416.70;1595648;88;20432;-79
2021/01/14 00:24:10;;;;;;;;;;;;;;;1.11;89.38;99417.97;1594414;88;20306;-78
2021/01/14 00:26:36;;;;;;;;;;;;;;;1.11;89.39;99430.28;1596482;88;20306;-78
2021/01/14 00:29:04;;;;;;;;;;;;;;;1.10;89.35;99431.55;1596925;88;20326;-78
2021/01/14 00:31:29;;;;;;;;;;;;;;;1.09;89.36;99431.97;1595789;88;21246;-78
2021/01/14 00:33:56;;;;;;;;;;;;;;;1.09;89.36;99437.06;1599261;88;20286;-78
2021/01/14 00:36:30;;;;;;;;;;;;;;;1.11;89.37;99445.97;1598624;88;20302;-78
2021/01/14 00:38:56;;;;;;;;;;;;;;;1.10;89.38;99441.73;1600662;88;20342;-78
2021/01/14 00:41:22;;;;;;;;;;;;;;;1.09;89.35;99448.52;1605013;88;20272;-78
2021/01/14 00:43:48;;;;;;;;;;;;;;;1.10;89.38;99451.91;1605060;88;21228;-78
2021/01/14 00:46:19;;;;;;;;;;;;;;;1.09;89.35;99455.30;1607224;88;20326;-79
2021/01/14 00:48:45;;;;;;;;;;;;;;;1.09;89.38;99452.33;1598212;88;20334;-79
2021/01/14 00:51:11;;;;;;;;;;;;;;;1.11;89.41;99456.16;1598555;88;20203;-79
2021/01/14 00:53:38;;;;;;;;;;;;;;;1.10;89.38;99459.55;1599448;88;20316;-79
2021/01/14 00:56:05;;;;;;;;;;;;;;;1.10;89.41;99462.94;1599747;88;22003;-79
2021/01/14 00:58:33;;;;;;;;;;;;;;;1.11;89.41;99467.19;1600600;88;20294;-79
2021/01/14 01:00:59;;;;;;;;;;;;;;;1.11;89.37;99473.98;1594864;89;20623;-79
2021/01/14 01:03:25;;;;;;;;;;;;;;;1.09;89.35;99477.79;1592942;89;20335;-79
2021/01/14 01:05:51;;;;;;;;;;;;;;;1.09;89.39;99473.97;1600796;89;20379;-79
2021/01/14 01:08:17;;;;;;;;;;;;;;;1.04;89.33;99480.73;1593428;88;21232;-79
2021/01/14 01:10:43;;;;;;;;;;;;;;;1.05;89.35;99493.05;1598312;89;20292;-79
2021/01/14 01:13:09;;;;;;;;;;;;;;;1.02;89.32;99492.64;1594586;89;20295;-79
2021/01/14 01:15:35;;;;;;;;;;;;;;;1.01;89.35;99495.18;1599300;88;20283;-79
2021/01/14 01:18:01;;;;;;;;;;;;;;;0.98;89.33;99494.73;1592871;88;20261;-79
2021/01/14 01:20:28;;;;;;;;;;;;;;;0.96;89.36;99495.16;1597370;88;21288;-79
2021/01/14 01:22:56;;;;;;;;;;;;;;;0.97;89.40;99500.67;1596973;88;20287;-79
2021/01/14 01:25:22;;;;;;;;;;;;;;;0.96;89.40;99502.79;1602505;88;20267;-79
2021/01/14 01:27:48;;;;;;;;;;;;;;;0.94;89.38;99498.11;1607033;88;20219;-79
2021/01/14 01:30:14;;;;;;;;;;;;;;;0.93;89.40;99508.72;1597666;88;20219;-78
2021/01/14 01:32:40;;;;;;;;;;;;;;;0.95;89.44;99512.55;1599656;88;21268;-79
2021/01/14 01:35:07;;;;;;;;;;;;;;;0.95;89.43;99513.39;1598353;88;20798;-79
2021/01/14 01:37:33;;;;;;;;;;;;;;;0.92;89.40;99514.65;1601341;88;20263;-79
2021/01/14 01:39:59;;;;;;;;;;;;;;;0.93;89.40;99517.62;1602147;88;20286;-79
2021/01/14 01:42:25;;;;;;;;;;;;;;;0.93;89.41;99526.53;1596851;88;20279;-79
2021/01/14 01:44:51;;;;;;;;;;;;;;;0.93;89.42;99527.80;1608518;88;21218;-79
2021/01/14 01:47:18;;;;;;;;;;;;;;;0.91;89.35;99529.91;1607959;88;20223;-79
2021/01/14 01:49:44;;;;;;;;;;;;;;;0.89;89.37;99530.33;1599215;88;20590;-79
2021/01/14 01:52:10;;;;;;;;;;;;;;;0.87;89.39;99532.01;1605553;88;20299;-79
2021/01/14 01:54:36;;;;;;;;;;;;;;;0.86;89.41;99534.98;1590247;89;20381;-79
2021/01/14 01:57:04;;;;;;;;;;;;;;;0.85;89.41;99537.52;1588787;89;21241;-79
2021/01/14 01:59:31;;;;;;;;;;;;;;;0.85;89.43;99542.17;1589365;89;20705;-78
2021/01/14 02:01:57;;;;;;;;;;;;;;;0.84;89.43;99543.02;1586991;89;20303;-78
2021/01/14 02:04:23;;;;;;;;;;;;;;;0.83;89.41;99548.95;1587255;89;20336;-78
2021/01/14 02:30:05;;;;;;;7.80;6.62;;;;;;;1.08;89.16;99594.45;1780136;78;28208;-79
2021/01/14 02:32:32;;;;;;;11.22;8.05;;;;;;;0.99;89.13;99595.28;1757823;80;21519;-79
2021/01/14 02:34:58;;;;;;;9.13;6.97;;;;;;;0.94;89.19;99596.09;1739979;81;21471;-79
2021/01/14 02:37:24;;;;;;;10.00;7.85;;;;;;;0.88;89.26;99601.14;1730365;81;21196;-79
2021/01/14 02:39:50;;;;;;;10.58;8.13;;;;;;;0.83;89.32;99606.63;1739050;81;21211;-79
2021/01/14 02:42:17;;;;;;;8.20;7.10;;;;;;;0.79;89.37;99611.27;1744487;81;21779;-79
2021/01/14 02:44:43;;;;;;;9.03;7.75;;;;;;;0.76;89.45;99604.87;1736799;81;21091;-79
2021/01/14 02:47:12;;;;;;;7.72;6.95;;;;;;;0.74;89.47;99610.38;1746840;81;21186;-79
2021/01/14 02:49:52;;;;;;;7.42;6.30;;;;;;;0.71;89.52;99624.34;1742008;81;21186;-79
2021/01/14 02:52:20;;;;;;;10.48;7.87;;;;;;;0.71;89.56;99626.47;1731729;81;21479;-79
2021/01/14 02:54:47;;;;;;;8.70;7.75;;;;;;;0.68;89.53;99635.34;1745752;81;21753;-79
2021/01/14 02:57:17;;;;;;;9.13;8.15;;;;;;;0.62;89.51;99636.15;1747541;81;21194;-79
2021/01/14 02:59:46;;;;;;;10.05;8.30;;;;;;;0.60;89.54;99642.06;1739906;81;21900;-79
2021/01/14 03:02:13;;;;;;;10.13;8.98;;;;;;;0.56;89.56;99645.00;1745961;80;21210;-79
2021/01/14 03:04:39;;;;;;;;;;;;;;;0.56;89.61;99650.09;1744663;81;21177;-79
2021/01/14 03:07:05;;;;;;;11.57;9.55;;;;;;;0.58;89.69;99657.31;1743244;81;20286;-79
2021/01/14 03:09:32;;;;;;;13.00;10.03;;;;;;;0.58;89.65;99655.19;1732084;81;21201;-79
2021/01/14 03:11:58;;;;;;;14.90;11.43;;;;;;;0.58;89.66;99659.85;1740827;81;21731;-79
2021/01/14 03:14:24;;;;;;;14.58;10.75;;;;;;;0.59;89.68;99661.98;1741914;81;21614;-79
2021/01/14 03:16:50;;;;;;;15.58;11.80;;;;;;;0.60;89.64;99668.77;1750070;81;21174;-79
2021/01/14 03:19:17;;;;;;;19.25;13.30;;;;;;;0.62;89.66;99670.91;1740345;80;21620;-78
2021/01/14 03:21:43;;;;;;;11.15;8.98;;;;;;;0.62;89.65;99683.20;1729060;82;21185;-78
2021/01/14 03:24:10;;;;;;;16.40;13.75;;;;;;;0.64;89.67;99685.34;1723742;80;21409;-79
2021/01/14 03:26:37;;;;;;;19.73;14.07;;;;;;;0.64;89.63;99684.08;1744032;81;21609;-79
2021/01/14 03:29:03;;;;;;;19.02;14.80;;;;;;;0.63;89.62;99696.36;1722422;81;21047;-79
2021/01/14 03:31:30;;;;;;;25.68;16.87;;;;;;;0.65;89.65;99692.55;1731016;81;21181;-79
2021/01/14 03:33:56;;;;;;;;;;;;;;;0.67;89.68;99701.05;1751478;81;21618;-79
2021/01/14 03:36:22;;;;;;;19.98;15.05;;;;;;;0.69;89.65;99702.34;1722051;81;21194;-79
2021/01/14 03:38:49;;;;;;;25.15;17.07;;;;;;;0.70;89.64;99707.86;1749674;81;21182;-79
2021/01/14 03:41:18;;;;;;;28.92;19.40;;;;;;;0.70;89.62;99713.80;1739650;81;21171;-79
2021/01/14 03:43:45;;;;;;;29.12;18.95;;;;;;;0.69;89.62;99715.91;1708367;83;21231;-79
2021/01/14 03:46:15;;;;;;;33.15;20.90;;;;;;;0.71;89.64;99717.20;1745632;81;21189;-79
2021/01/14 03:48:44;;;;;;;39.80;24.60;;;;;;;0.70;89.62;99722.70;1746116;81;21631;-79
2021/01/14 03:51:20;;;;;;;34.95;21.00;;;;;;;0.72;89.64;99731.63;1746713;81;21146;-79
2021/01/14 03:53:48;;;;;;;36.03;23.05;;;;;;;0.74;89.64;99741.40;1743223;81;21697;-79
2021/01/14 03:56:15;;;;;;;40.05;24.77;;;;;;;0.72;89.61;99743.08;1737582;81;21185;-79
2021/01/14 03:58:42;;;;;;;35.90;23.57;;;;;;;0.73;89.61;99761.32;1732615;81;21181;-79
2021/01/14 04:01:08;;;;;;;39.98;24.32;;;;;;;0.70;89.58;99765.96;1725822;81;21195;-80
2021/01/14 04:03:43;;;;;;;38.95;22.85;;;;;;;0.71;89.58;99773.17;1720523;81;21182;-80
2021/01/14 04:06:11;;;;;;;45.48;25.10;;;;;;;0.71;89.62;99776.98;1722006;81;21198;-79
2021/01/14 04:08:37;;;;;;;41.30;24.92;;;;;;;0.69;89.61;99785.88;1728177;81;21185;-79
2021/01/14 04:11:04;;;;;;;44.83;25.37;;;;;;;0.70;89.59;99793.09;1701810;81;21177;-79
2021/01/14 04:13:31;;;;;;;;;;;;;;;0.69;89.57;99797.74;1731356;81;21186;-79
2021/01/14 04:15:57;;;;;;;45.08;26.25;;;;;;;0.68;89.60;99801.13;1726276;81;21084;-79
2021/01/14 04:18:24;;;;;;;57.45;28.07;;;;;;;0.65;89.57;99808.31;1720737;81;28722;-79
2021/01/14 04:20:51;;;;;;;51.88;28.35;;;;;;;0.63;89.60;99814.65;1720048;81;21522;-79
2021/01/14 04:23:19;;;;;;;46.88;24.75;;;;;;;0.64;89.62;99823.98;1744244;81;21697;-79
2021/01/14 04:25:45;;;;;;;47.90;26.30;;;;;;;0.65;89.61;99824.84;1736541;81;21211;-79
2021/01/14 04:28:11;;;;;;;56.37;29.07;;;;;;;0.63;89.60;99837.96;1722017;81;21213;-79
2021/01/14 04:30:37;;;;;;;49.85;26.62;;;;;;;0.62;89.58;99843.89;1742713;81;21193;-78
2021/01/14 04:33:13;;;;;;;49.65;26.93;;;;;;;0.62;89.62;99846.43;1744342;81;21204;-79
2021/01/14 04:35:51;;;;;;;47.57;26.87;;;;;;;0.63;89.61;99848.14;1738588;81;21177;-79
2021/01/14 04:38:19;;;;;;;44.55;23.47;;;;;;;0.62;89.62;99860.00;1731426;81;21632;-79
2021/01/14 04:40:48;;;;;;;48.87;25.68;;;;;;;0.60;89.56;99861.67;1737195;81;21173;-79
2021/01/14 04:43:15;;;;;;;48.95;25.77;;;;;;;0.60;89.59;99867.18;1749005;81;21227;-79
2021/01/14 04:45:43;;;;;;;42.62;25.48;;;;;;;0.59;89.59;99870.14;1748632;79;21188;-79
2021/01/14 04:48:11;;;;;;;39.63;23.87;;;;;;;0.60;89.60;99884.56;1763077;81;21173;-79
2021/01/14 04:50:39;;;;;;;31.60;19.25;;;;;;;0.60;89.59;99884.98;1751799;81;21189;-79
2021/01/14 04:53:10;;;;;;;32.58;17.50;;;;;;;0.60;89.56;99892.20;1749141;79;21656;-79
2021/01/14 04:55:45;;;;;;;33.67;20.62;;;;;;;0.59;89.50;99896.00;1758130;81;21224;-79
2021/01/14 04:58:18;;;;;;;37.15;21.15;;;;;;;0.58;89.50;99896.41;1738949;81;21188;-79
2021/01/14 05:00:52;;;;;;;35.38;20.02;;;;;;;0.58;89.53;99900.64;1750324;81;21201;-79
2021/01/14 05:03:26;;;;;;;33.53;20.23;;;;;;;0.58;89.50;99908.28;1741416;81;21464;-79
2021/01/14 05:05:53;;;;;;;37.10;21.50;;;;;;;0.58;89.50;99909.55;1757703;81;21184;-79
2021/01/14 05:08:29;;;;;;;74.70;38.65;;;;;;;0.58;89.52;99910.82;1766757;81;21158;-79
2021/01/14 05:10:57;;;;;;;53.17;29.12;;;;;;;0.58;89.50;99920.58;1751095;81;21789;-79
2021/01/14 05:13:24;;;;;;;46.60;26.35;;;;;;;0.58;89.50;99923.54;1754142;81;21628;-79
2021/01/14 05:15:51;;;;;;;36.98;20.72;;;;;;;0.56;89.45;99926.48;1740183;81;21366;-79
2021/01/14 05:18:17;;;;;;;35.33;19.35;;;;;;;0.54;89.44;99926.46;1762511;81;21010;-78
2021/01/14 05:20:43;;;;;;;40.15;21.85;;;;;;;0.54;89.46;99929.42;1766019;81;20999;-78
2021/01/14 05:23:13;;;;;;;84.17;35.23;;;;;;;0.53;89.47;99938.73;1766871;81;21110;-79
2021/01/14 05:25:51;;;;;;;55.33;28.35;;;;;;;0.53;89.48;99943.83;1761808;81;21440;-79
2021/01/14 05:28:15;;;;;;;73.42;33.65;;;;;;;0.55;89.46;99952.75;1753051;81;21161;-79
2021/01/14 05:30:43;;;;;;;61.95;26.77;;;;;;;0.53;89.48;99957.81;1759168;81;21005;-79
2021/01/14 05:33:18;;;;;;;64.25;25.65;;;;;;;0.54;89.50;99963.34;1756579;80;21146;-79
2021/01/14 05:35:48;;;;;;;61.77;23.67;;;;;;;0.56;89.51;99963.36;1722750;81;21199;-79
2021/01/14 05:38:28;;;;;;;38.23;19.15;;;;;;;0.57;89.54;99976.52;1750428;81;21105;-79
2021/01/14 05:41:21;;;;;;;50.08;23.47;;;;;;;0.58;89.53;99982.05;1734895;81;21248;-78
2021/01/14 05:43:57;;;;;;;36.50;20.02;;;;;;;0.59;89.58;99992.66;1739907;81;21146;-79
2021/01/14 05:46:31;;;;;;;40.10;22.65;;;;;;;0.61;89.56;99997.35;1736414;80;21192;-79
2021/01/14 05:49:03;;;;;;;42.23;21.65;;;;;;;0.62;89.56;100006.28;1725003;81;21198;-79
2021/01/14 05:51:32;;;;;;;40.73;21.93;;;;;;;0.63;89.56;100013.08;1732241;81;21174;-79
2021/01/14 05:54:06;;;;;;;60.92;27.65;;;;;;;0.64;89.56;100016.48;1754844;81;21352;-79
2021/01/14 05:56:47;;;;;;;50.48;25.65;;;;;;;0.64;89.57;100018.61;1761280;81;21182;-79
2021/01/14 05:59:19;;;;;;;52.45;27.70;;;;;;;0.64;89.58;100022.42;1738332;82;21194;-79
2021/01/14 06:02:00;;;;;;;58.08;28.00;;;;;;;0.64;89.57;100023.69;1736688;81;21660;-79
2021/01/14 06:04:31;;;;;;;43.45;23.47;;;;;;;0.65;89.59;100036.85;1744341;81;22183;-79
2021/01/14 06:07:02;;;;;;;55.43;26.82;;;;;;;0.65;89.58;100040.67;1747672;81;21210;-79
2021/01/14 06:09:27;;;;;;;50.43;27.58;;;;;;;0.64;89.58;100049.55;1735065;81;21217;-79
2021/01/14 06:12:10;;;;;;;59.95;27.40;;;;;;;0.62;89.56;100042.31;1731754;81;21142;-79
2021/01/14 06:14:37;;;;;;;51.58;26.80;;;;;;;0.62;89.56;100060.12;1736941;81;21182;-78
2021/01/14 06:17:11;;;;;;;59.93;27.95;;;;;;;0.59;89.57;100063.47;1746412;81;21186;-79
2021/01/14 06:19:37;;;;;;;54.95;28.45;;;;;;;0.59;89.60;100071.52;1735144;81;21487;-79
2021/01/14 06:22:05;;;;;;;60.73;29.00;;;;;;;0.61;89.62;100075.80;1741127;81;21193;-79
2021/01/14 06:24:36;;;;;;;55.38;28.23;;;;;;;0.61;89.59;100084.70;1738873;80;21193;-78
2021/01/14 06:27:09;;;;;;;54.03;27.45;;;;;;;0.62;89.59;100088.96;1724905;81;21177;-79
2021/01/14 06:29:41;;;;;;;62.95;28.67;;;;;;;0.62;89.60;100095.73;1750335;81;21173;-78
2021/01/14 06:32:15;;;;;;;51.85;25.45;;;;;;;0.63;89.61;100100.84;1707092;81;21594;-78
2021/01/14 06:34:50;;;;;;;55.78;26.33;;;;;;;0.64;89.62;100102.97;1739801;81;21187;-80
2021/01/14 06:37:25;;;;;;;48.20;24.95;;;;;;;0.66;89.62;100109.80;1742783;81;21213;-80
2021/01/14 06:39:59;;;;;;;52.90;26.25;;;;;;;0.64;89.58;100115.70;1728292;81;21106;-80
2021/01/14 06:42:39;;;;;;;47.25;24.35;;;;;;;0.64;89.57;100124.19;1738157;80;21895;-80
2021/01/14 06:45:09;;;;;;;41.15;21.70;;;;;;;0.63;89.53;100131.79;1731861;80;21162;-80
2021/01/14 06:47:49;;;;;;;50.63;25.77;;;;;;;0.60;89.54;100136.41;1731723;81;21179;-80
2021/01/14 06:50:27;;;;;;;53.90;27.65;;;;;;;0.60;89.59;100152.95;1742627;81;21198;-80
2021/01/14 06:53:10;;;;;;;48.60;25.40;;;;;;;0.63;89.61;100163.17;1739215;80;21181;-80
2021/01/14 06:55:37;;;;;;;53.60;26.10;;;;;;;0.63;89.59;100164.45;1741141;81;21197;-80
2021/01/14 06:58:10;;;;;;;48.38;24.80;;;;;;;0.63;89.58;100175.04;1746058;81;21582;-80
2021/01/14 07:00:48;;;;;;;47.62;22.65;;;;;;;0.63;89.56;100183.95;1734313;80;21134;-80
2021/01/14 07:03:23;;;;;;;50.35;25.08;;;;;;;0.63;89.58;100189.03;1715222;81;21099;-81
2021/01/14 07:06:00;;;;;;;50.60;24.77;;;;;;;0.63;89.55;100191.58;1744605;81;21174;-82
2021/01/14 07:08:42;;;;;;;47.08;24.23;;;;;;;0.62;89.58;100199.63;1743952;81;21201;-81
2021/01/14 07:11:19;;;;;;;41.05;22.35;;;;;;;0.61;89.55;100212.31;1743991;80;21226;-80
2021/01/14 07:13:52;;;;;;;50.58;24.80;;;;;;;0.60;89.57;100225.45;1743681;80;21700;-81
2021/01/14 07:16:24;;;;;;;41.60;22.77;;;;;;;0.61;89.57;100231.40;1739505;80;21217;-80
2021/01/14 07:18:56;;;;;;;47.38;25.40;;;;;;;0.59;89.58;100235.19;1714893;81;21302;-80
2021/01/14 07:21:36;;;;;;;54.30;26.97;;;;;;;0.59;89.59;100239.00;1737948;81;21202;-80
2021/01/14 07:24:22;;;;;;;54.00;26.55;;;;;;;0.63;89.66;100242.46;1746659;80;21259;-80
2021/01/14 07:27:01;;;;;;;60.63;31.65;;;;;;;0.64;89.63;100245.03;1712894;81;21228;-80
2021/01/14 07:29:29;;;;;;;57.78;29.82;;;;;;;0.66;89.61;100248.46;1759285;80;21161;-81
2021/01/14 07:31:58;;;;;;;48.50;25.37;;;;;;;0.66;89.59;100250.15;1759787;80;21519;-81
2021/01/14 07:34:45;;;;;;;41.30;21.93;;;;;;;0.64;89.57;100259.03;1723354;81;21189;-81
2021/01/14 07:37:14;;;;;;;42.05;22.00;;;;;;;0.62;89.56;100259.41;1736856;81;21223;-81
2021/01/14 07:39:58;;;;;;;40.17;21.80;;;;;;;0.63;89.64;100261.13;1728732;81;21205;-81
2021/01/14 07:42:31;;;;;;;66.55;32.38;;;;;;;0.64;89.61;100267.08;1737222;81;21209;-81
2021/01/14 07:45:01;;;;;;;82.90;34.88;;;;;;;0.64;89.63;100266.66;1737453;81;21198;-81
2021/01/14 07:47:37;;;;;;;76.72;33.05;;;;;;;0.68;89.63;100278.16;1739523;81;21628;-81
2021/01/14 07:50:25;;;;;;;56.70;25.50;;;;;;;0.65;89.58;100280.23;1736836;81;21906;-81
2021/01/14 07:52:53;;;;;;;66.82;29.80;;;;;;;0.63;89.54;100290.38;1735517;81;21169;-79
2021/01/14 07:55:31;;;;;;;50.23;26.17;;;;;;;0.63;89.55;100290.80;1751844;81;21602;-80
2021/01/14 07:58:26;;;;;;;108.57;50.25;;;;;;;0.64;89.55;100288.70;1736862;81;21177;-80
2021/01/14 08:01:10;;;;;;;139.32;68.50;;;;;;;0.64;89.57;100293.38;1695553;82;21211;-80
2021/01/14 08:03:41;;;;;;;67.67;35.68;;;;;;;0.67;89.56;100305.30;1679917;83;21226;-80
2021/01/14 08:06:29;;;;;;;53.73;27.27;;;;;;;0.64;89.49;100315.00;1682480;83;21223;-79
2021/01/14 08:09:10;;;;;;;37.83;18.95;;;;;;;0.65;89.55;100316.72;1687194;83;21823;-80
2021/01/14 08:11:50;;;;;;;37.42;19.73;;;;;;;0.59;89.45;100315.33;1689513;83;21233;-79
2021/01/14 08:14:22;;;;;;;41.30;23.65;;;;;;;0.57;89.42;100324.61;1688069;83;21199;-80
2021/01/14 08:17:22;;;;;;;35.05;18.10;;;;;;;0.50;89.36;100327.89;1664028;83;21224;-80
2021/01/14 08:22:45;;;;;;;31.23;16.67;;;;;;;0.52;89.50;100338.92;1587982;88;21259;-79
2021/01/14 08:25:15;;;;;;;30.80;16.37;;;;;;;0.51;89.42;100343.60;1586774;88;21272;-80
2021/01/14 08:27:44;;;;;;;34.60;19.95;;;;;;;0.49;89.41;100346.53;1587651;88;21291;-79
2021/01/14 08:30:17;;;;;;;32.00;17.17;;;;;;;0.47;89.38;100354.95;1567117;88;21321;-79
2021/01/14 08:32:48;;;;;;;32.15;18.35;;;;;;;0.47;89.41;100358.77;1591650;88;21184;-78
2021/01/14 08:35:23;;;;;;;32.42;17.02;;;;;;;0.48;89.45;100357.53;1589583;89;21205;-78
2021/01/14 08:37:57;;;;;;;35.58;17.32;;;;;;;0.50;89.47;100363.50;1587131;88;21172;-78
2021/01/14 08:40:27;;;;;;;28.85;16.05;;;;;;;0.50;89.46;100371.14;1588611;88;21188;-78
2021/01/14 08:43:11;;;;;;;28.07;14.78;;;;;;;0.55;89.49;100383.92;1590156;88;21201;-78
2021/01/14 08:45:51;;;;;;;25.70;14.78;;;;;;;0.56;89.46;100381.82;1589102;88;21192;-78
2021/01/14 08:48:25;;;;;;;30.37;15.10;;;;;;;0.58;89.51;100386.53;1589886;88;21183;-78
2021/01/14 08:51:02;;;;;;;28.05;15.72;;;;;;;0.61;89.55;100396.35;1588396;88;21180;-78
2021/01/14 08:53:37;;;;;;;27.70;15.93;;;;;;;0.63;89.52;100398.52;1589661;88;21185;-78
2021/01/14 08:56:15;;;;;;;26.00;15.53;;;;;;;0.65;89.51;100404.49;1597771;88;21394;-78
2021/01/14 08:58:47;;;;;;;26.00;14.85;;;;;;;0.67;89.49;100408.34;1628821;86;21545;-78
2021/01/14 09:01:30;;;;;;;27.27;15.20;;;;;;;0.65;89.45;100411.27;1619734;86;21144;-78
2021/01/14 09:17:42;;;;;;;35.60;20.30;;;;;;;1.13;89.25;100452.51;1841748;76;27688;-79
2021/01/14 09:20:10;;;;;;;36.40;20.27;;;;;;;1.00;88.90;100450.16;1789795;77;21342;-79
2021/01/14 09:22:38;;;;;;;34.18;19.20;;;;;;;0.90;88.97;100458.44;1773815;79;21286;-78
2021/01/14 09:25:09;;;;;;;39.05;20.60;;;;;;;0.87;89.19;100456.69;1800805;77;21071;-79
2021/01/14 09:27:36;;;;;;;36.05;20.02;;;;;;;0.93;89.40;100466.14;1796623;77;20976;-80
2021/01/14 09:30:03;;;;;;;35.05;20.02;;;;;;;1.01;89.55;100463.34;1791519;77;20988;-79
2021/01/14 09:32:30;;;;;;;35.25;19.50;;;;;;;1.09;89.60;100465.59;1796715;77;21369;-77
2021/01/14 09:35:00;;;;;;;39.63;19.95;;;;;;;1.16;89.59;100470.39;1791486;77;21173;-79
2021/01/14 09:37:30;;;;;;;30.37;17.15;;;;;;;1.21;89.59;100469.66;1788960;77;21878;-80
2021/01/14 09:40:00;;;;;;;31.02;16.70;;;;;;;1.23;89.49;100475.64;1795767;77;20976;-79
2021/01/14 09:42:27;;;;;;;28.95;17.42;;;;;;;1.25;89.44;100474.39;1794824;77;21111;-78
2021/01/14 09:44:55;;;;;;;28.92;16.93;;;;;;;1.20;89.33;100476.85;1790394;77;21317;-80
2021/01/14 09:47:24;;;;;;;32.05;17.87;;;;;;;1.20;89.39;100481.94;1793163;77;20997;-79
2021/01/14 09:49:51;;;;;;;28.95;16.82;;;;;;;1.25;89.50;100476.94;1793159;77;21126;-79
2021/01/14 09:52:26;;;;;;;22.00;14.65;;;;;;;1.27;89.38;100484.20;1799202;77;20968;-78
2021/01/14 09:54:54;;;;;;;31.60;16.55;;;;;;;1.26;89.43;100480.79;1797578;77;21111;-79
2021/01/14 09:57:23;;;;;;;30.10;17.42;;;;;;;1.28;89.42;100489.73;1763224;77;21094;-79
2021/01/14 10:00:00;;;;;;;26.52;16.45;;;;;;;1.30;89.50;100485.11;1792242;77;21313;-79
2021/01/14 10:02:34;;;;;;;24.85;15.85;;;;;;;1.33;89.43;100491.95;1805623;77;21083;-79
2021/01/14 10:05:09;;;;;;;28.20;16.17;;;;;;;1.37;89.48;100495.42;1801928;77;21445;-79
2021/01/14 10:07:39;;;;;;;26.82;16.37;;;;;;;1.44;89.52;100494.30;1788202;77;21157;-78
2021/01/14 10:10:08;;;;;;;23.65;13.85;;;;;;;1.50;89.54;100491.00;1778455;79;21221;-79
2021/01/14 10:12:37;;;;;;;25.90;15.68;;;;;;;1.55;89.50;100500.45;1756361;79;21436;-79
2021/01/14 10:15:12;;;;;;;24.40;14.50;;;;;;;1.61;89.53;100495.85;1782888;79;21428;-77
2021/01/14 10:17:42;;;;;;;23.42;14.40;;;;;;;1.66;89.52;100499.34;1761519;79;21146;-79
2021/01/14 10:20:15;;;;;;;26.23;15.25;;;;;;;1.65;89.33;100508.68;1766985;79;21127;-79
2021/01/14 10:22:52;;;;;;;24.90;14.73;;;;;;;1.60;89.24;100509.42;1773692;79;20961;-80
2021/01/14 10:25:20;;;;;;;26.17;14.75;;;;;;;1.60;89.33;100519.20;1750353;79;21373;-77
2021/01/14 10:28:07;;;;;;;25.48;16.57;;;;;;;1.63;89.37;100519.26;1762589;79;20965;-80
2021/01/14 10:30:40;;;;;;;20.75;13.45;;;;;;;1.63;89.36;100528.18;1744204;79;20973;-79
2021/01/14 10:33:07;;;;;;;29.30;17.07;;;;;;;1.66;89.36;100536.30;1768819;79;21103;-79
2021/01/14 10:35:37;;;;;;;29.25;16.27;;;;;;;1.62;89.27;100531.56;1735977;79;21131;-79
2021/01/14 10:38:13;;;;;;;24.87;16.32;;;;;;;1.63;89.32;100537.52;1758734;79;21301;-79
2021/01/14 10:40:49;;;;;;;24.93;14.93;;;;;;;1.62;89.22;100540.89;1751891;79;21079;-79
2021/01/14 10:43:37;;;;;;;24.57;15.72;;;;;;;1.63;89.29;100543.47;1766175;79;21110;-79
2021/01/14 10:46:05;;;;;;;25.02;15.00;;;;;;;1.60;89.22;100545.10;1760291;79;21095;-79
2021/01/14 10:48:42;;;;;;;29.90;16.80;;;;;;;1.61;89.27;100554.47;1769746;79;21119;-79
2021/01/14 10:51:08;;;;;;;28.07;15.30;;;;;;;1.59;89.27;100553.16;1754935;79;21438;-79
2021/01/14 10:53:37;;;;;;;27.77;16.10;;;;;;;1.59;89.27;100567.17;1750813;79;21098;-80
2021/01/14 10:56:14;;;;;;;27.10;15.55;;;;;;;1.58;89.25;100568.00;1757846;79;21326;-80
2021/01/14 10:58:41;;;;;;;26.87;15.43;;;;;;;1.61;89.32;100562.11;1762994;79;21743;-80
2021/01/14 11:01:19;;;;;;;29.65;15.60;;;;;;;1.66;89.43;100566.47;1761686;79;21507;-80
2021/01/14 11:03:46;;;;;;;23.62;14.78;;;;;;;1.76;89.50;100562.41;1755832;79;22564;-80
2021/01/14 11:06:31;;;;;;;24.07;14.93;;;;;;;1.88;89.57;100566.88;1730550;79;21180;-79
2021/01/14 11:09:09;;;;;;;28.83;16.02;;;;;;;1.88;89.37;100568.14;1751032;79;21098;-79
2021/01/14 11:11:39;;;;;;;30.32;16.62;;;;;;;1.92;89.39;100573.75;1751954;79;21095;-79
2021/01/14 11:14:05;;;;;;;26.35;16.40;;;;;;;1.97;89.37;100573.00;1759509;79;21107;-79
2021/01/14 11:16:31;;;;;;;27.95;16.25;;;;;;;1.97;89.29;100584.47;1737699;80;21216;-79
2021/01/14 11:19:03;;;;;;;24.43;15.10;;;;;;;1.97;89.22;100578.52;1765725;79;21147;-79
2021/01/14 11:21:31;;;;;;;28.75;16.15;;;;;;;1.96;89.23;100579.34;1743724;80;20984;-79
2021/01/14 11:23:58;;;;;;;30.08;16.70;;;;;;;1.96;89.23;100580.63;1769930;79;21102;-79
2021/01/14 11:26:25;;;;;;;30.90;16.90;;;;;;;1.92;89.13;100587.36;1768743;79;20933;-79
2021/01/14 11:28:53;;;;;;;29.95;17.67;;;;;;;1.93;89.21;100588.22;1751385;79;22469;-78
2021/01/14 11:31:21;;;;;;;29.23;16.50;;;;;;;1.92;89.18;100586.08;1735525;80;21373;-80
2021/01/14 11:33:48;;;;;;;29.00;16.48;;;;;;;1.94;89.29;100588.66;1755582;79;21122;-80
2021/01/14 11:36:18;;;;;;;;;;;;;;;1.92;89.20;100593.73;1756763;79;21523;-80
2021/01/14 11:38:44;;;;;;;23.40;14.58;;;;;;;1.88;89.04;100592.37;1761375;79;20251;-79
2021/01/14 11:41:11;;;;;;;24.57;14.98;;;;;;;1.86;89.20;100591.48;1764349;79;21146;-78
2021/01/14 11:43:41;;;;;;;24.67;14.33;;;;;;;1.87;89.23;100587.68;1766801;79;21123;-78
2021/01/14 11:46:08;;;;;;;20.40;13.72;;;;;;;1.86;89.22;100588.52;1771216;79;21075;-78
2021/01/14 11:48:34;;;;;;;19.07;13.45;;;;;;;1.87;89.21;100595.33;1782164;79;21111;-78
2021/01/14 11:51:00;;;;;;;24.57;14.05;;;;;;;1.81;89.16;100586.70;1776404;79;21096;-78
2021/01/14 11:53:27;;;;;;;20.00;12.75;;;;;;;1.75;89.12;100580.22;1776162;79;22373;-78
2021/01/14 11:55:53;;;;;;;17.98;11.55;;;;;;;1.70;89.07;100581.81;1767894;79;22308;-78
2021/01/14 11:58:26;;;;;;;21.65;13.40;;;;;;;1.60;89.06;100584.19;1769241;79;21110;-78
2021/01/14 12:00:52;;;;;;;21.50;13.15;;;;;;;1.54;89.08;100583.23;1771440;79;21122;-78
2021/01/14 12:03:18;;;;;;;21.85;13.80;;;;;;;1.54;89.23;100577.73;1768389;79;20893;-78
2021/01/14 12:05:45;;;;;;;21.68;12.18;;;;;;;1.53;89.25;100581.10;1771140;79;21172;-78
2021/01/14 12:08:11;;;;;;;27.17;14.75;;;;;;;1.52;89.28;100584.48;1772498;79;21113;-78
2021/01/14 12:10:37;;;;;;;23.98;14.15;;;;;;;1.51;89.24;100585.72;1769851;79;21787;-78
2021/01/14 12:13:06;;;;;;;25.00;14.93;;;;;;;1.50;89.28;100592.51;1773780;79;21509;-78
2021/01/14 12:15:34;;;;;;;22.62;13.93;;;;;;;1.44;89.18;100592.38;1771353;79;21103;-78
2021/01/14 12:18:01;;;;;;;24.30;13.50;;;;;;;1.42;89.26;100590.63;1770222;79;21377;-78
2021/01/14 12:20:27;;;;;;;21.52;13.95;;;;;;;1.37;89.16;100593.50;1757291;79;21146;-78
2021/01/14 12:22:57;;;;;;;21.50;12.18;;;;;;;1.30;89.20;100603.55;1759329;79;21135;-80
2021/01/14 12:25:26;;;;;;;20.90;13.68;;;;;;;1.24;89.17;100607.66;1760262;79;21110;-80
2021/01/14 12:27:57;;;;;;;22.32;12.85;;;;;;;1.22;89.29;100616.54;1765358;79;21132;-80
2021/01/14 12:30:24;;;;;;;26.82;12.90;;;;;;;1.21;89.28;100616.50;1760316;79;21178;-80
2021/01/14 12:32:50;;;;;;;26.68;13.72;;;;;;;1.17;89.25;100620.67;1744388;79;21123;-78